Time;durP1;ratioP1;P1;durP2;ratioP2;P2;SDS_P1;SDS_P2;PMS_P1;PMS_P2;Temp;Humidity;BMP_temperature;BMP_pressure;BME280_temperature;BME280_humidity;BME280_pressure;Samples;Min_cycle;Max_cycle;Signal;HPM_P1;HPM_P2
2023/12/26 00:02:20;;;;;;;6.45;1.75;;;;;;;;;;4909814;29;20035;-74
2023/12/26 00:04:47;;;;;;;4.45;1.52;;;;;;;;;;4929452;29;20104;-74
2023/12/26 00:07:13;;;;;;;4.65;1.60;;;;;;;;;;4922849;29;20047;-75
2023/12/26 00:09:40;;;;;;;6.93;1.70;;;;;;;;;;4922700;29;20058;-74
2023/12/26 00:12:07;;;;;;;3.85;1.50;;;;;;;;;;4920353;29;20046;-75
2023/12/26 00:14:33;;;;;;;3.92;1.58;;;;;;;;;;4928934;29;20043;-74
2023/12/26 00:16:59;;;;;;;5.20;2.50;;;;;;;;;;4920554;29;20112;-74
2023/12/26 00:19:25;;;;;;;5.30;1.92;;;;;;;;;;4893928;28;20055;-74
2023/12/26 00:21:51;;;;;;;8.65;2.10;;;;;;;;;;4920335;29;20483;-74
2023/12/26 00:24:17;;;;;;;11.82;2.42;;;;;;;;;;4937168;29;20039;-74
2023/12/26 00:26:43;;;;;;;9.85;1.80;;;;;;;;;;4921107;29;20389;-74
2023/12/26 00:29:09;;;;;;;12.38;1.98;;;;;;;;;;4936811;29;20044;-74
2023/12/26 00:31:40;;;;;;;12.18;3.03;;;;;;;;;;4922822;29;20035;-74
2023/12/26 00:34:06;;;;;;;13.13;2.30;;;;;;;;;;4930111;29;20042;-74
2023/12/26 00:36:32;;;;;;;10.65;2.00;;;;;;;;;;4933824;29;20047;-74
2023/12/26 00:38:58;;;;;;;10.15;1.95;;;;;;;;;;4934407;29;20074;-74
2023/12/26 00:41:24;;;;;;;14.52;3.67;;;;;;;;;;4934276;29;20055;-74
2023/12/26 00:43:54;;;;;;;10.55;1.75;;;;;;;;;;4935550;29;20403;-74
2023/12/26 00:46:20;;;;;;;11.88;2.30;;;;;;;;;;4937830;29;20051;-74
2023/12/26 00:48:46;;;;;;;7.07;2.00;;;;;;;;;;4933982;29;20039;-73
2023/12/26 00:51:12;;;;;;;13.77;2.50;;;;;;;;;;4909934;29;20043;-72
2023/12/26 00:53:38;;;;;;;12.15;2.30;;;;;;;;;;4935498;29;20487;-74
2023/12/26 00:56:05;;;;;;;14.68;2.17;;;;;;;;;;4936482;29;20051;-74
2023/12/26 00:58:31;;;;;;;11.98;2.10;;;;;;;;;;4921369;29;20051;-74
2023/12/26 01:00:57;;;;;;;17.67;2.65;;;;;;;;;;4921931;28;20093;-74
2023/12/26 01:03:23;;;;;;;15.88;3.03;;;;;;;;;;4920584;28;20039;-74
2023/12/26 01:05:50;;;;;;;16.27;1.75;;;;;;;;;;4930689;29;20052;-73
2023/12/26 01:08:16;;;;;;;13.27;1.95;;;;;;;;;;4917194;29;20036;-74
2023/12/26 01:10:43;;;;;;;13.65;1.95;;;;;;;;;;4928027;29;20035;-73
2023/12/26 01:13:09;;;;;;;13.32;1.80;;;;;;;;;;4921561;29;20645;-74
2023/12/26 01:15:35;;;;;;;14.13;2.53;;;;;;;;;;4930920;29;20131;-74
2023/12/26 01:18:01;;;;;;;15.27;2.30;;;;;;;;;;4921303;29;20062;-73
2023/12/26 01:20:27;;;;;;;15.75;2.10;;;;;;;;;;4914551;29;20043;-74
2023/12/26 01:22:53;;;;;;;17.52;2.00;;;;;;;;;;4904612;29;20485;-74
2023/12/26 01:25:19;;;;;;;11.13;1.67;;;;;;;;;;4925098;29;20051;-74
2023/12/26 01:27:47;;;;;;;12.30;2.65;;;;;;;;;;4918779;29;20512;-74
2023/12/26 01:30:13;;;;;;;14.27;2.88;;;;;;;;;;4921954;29;20044;-74
2023/12/26 01:32:39;;;;;;;19.30;3.05;;;;;;;;;;4937638;29;20106;-74
2023/12/26 01:35:06;;;;;;;17.65;2.47;;;;;;;;;;4937294;29;20047;-74
2023/12/26 01:37:32;;;;;;;17.17;2.63;;;;;;;;;;4919341;29;20055;-73
2023/12/26 01:39:58;;;;;;;16.88;2.05;;;;;;;;;;4933793;29;20047;-73
2023/12/26 01:42:24;;;;;;;11.88;2.10;;;;;;;;;;4933803;29;20094;-73
2023/12/26 01:44:50;;;;;;;16.92;2.35;;;;;;;;;;4937207;29;20126;-73
2023/12/26 01:47:17;;;;;;;16.17;2.80;;;;;;;;;;4936754;29;20122;-73
2023/12/26 01:49:44;;;;;;;14.15;2.45;;;;;;;;;;4931706;29;20040;-73
2023/12/26 01:52:11;;;;;;;14.90;2.95;;;;;;;;;;4910559;29;20106;-73
2023/12/26 01:54:37;;;;;;;12.13;2.25;;;;;;;;;;4918492;29;20049;-73
2023/12/26 01:57:06;;;;;;;16.23;2.45;;;;;;;;;;4927370;29;20098;-73
2023/12/26 01:59:32;;;;;;;13.68;2.25;;;;;;;;;;4921383;28;20051;-73
2023/12/26 02:01:58;;;;;;;15.07;2.45;;;;;;;;;;4936554;29;20031;-73
2023/12/26 02:04:24;;;;;;;10.13;2.08;;;;;;;;;;4904083;29;20050;-73
2023/12/26 02:06:51;;;;;;;13.68;2.50;;;;;;;;;;4917110;29;20059;-73
2023/12/26 02:09:17;;;;;;;14.10;2.80;;;;;;;;;;4921833;29;20035;-73
2023/12/26 02:11:43;;;;;;;12.75;2.10;;;;;;;;;;4908498;29;20039;-73
2023/12/26 02:14:09;;;;;;;10.80;2.30;;;;;;;;;;4936261;28;20035;-73
2023/12/26 02:16:37;;;;;;;16.40;2.33;;;;;;;;;;4924402;29;20056;-73
2023/12/26 02:19:04;;;;;;;11.15;1.98;;;;;;;;;;4934683;29;20043;-73
2023/12/26 02:21:30;;;;;;;9.95;2.35;;;;;;;;;;4926753;29;20492;-73
2023/12/26 02:23:57;;;;;;;9.23;2.55;;;;;;;;;;4915872;29;20432;-73
2023/12/26 02:26:24;;;;;;;14.10;1.85;;;;;;;;;;4935278;29;20061;-73
2023/12/26 02:28:50;;;;;;;17.83;3.17;;;;;;;;;;4936368;28;20388;-73
2023/12/26 02:31:16;;;;;;;16.83;2.50;;;;;;;;;;4936275;29;20420;-73
2023/12/26 02:33:46;;;;;;;8.25;2.00;;;;;;;;;;4928430;29;20035;-73
2023/12/26 02:36:12;;;;;;;13.32;2.45;;;;;;;;;;4935142;29;20062;-73
2023/12/26 02:38:39;;;;;;;12.40;3.15;;;;;;;;;;4928999;29;20054;-73
2023/12/26 02:41:05;;;;;;;19.55;3.72;;;;;;;;;;4931209;28;20070;-73
2023/12/26 02:43:32;;;;;;;15.40;3.35;;;;;;;;;;4932022;29;20553;-73
2023/12/26 02:45:59;;;;;;;13.18;2.03;;;;;;;;;;4934529;29;20051;-73
2023/12/26 02:48:25;;;;;;;17.70;2.72;;;;;;;;;;4935706;29;20102;-73
2023/12/26 02:50:52;;;;;;;13.10;2.58;;;;;;;;;;4934712;29;20046;-73
2023/12/26 02:53:18;;;;;;;10.27;2.28;;;;;;;;;;4934484;29;20071;-73
2023/12/26 02:55:44;;;;;;;16.42;2.40;;;;;;;;;;4935726;29;20035;-73
2023/12/26 02:58:10;;;;;;;12.85;2.63;;;;;;;;;;4935526;29;20464;-73
2023/12/26 03:00:36;;;;;;;13.25;2.60;;;;;;;;;;4935706;29;20035;-73
2023/12/26 03:03:03;;;;;;;11.75;2.35;;;;;;;;;;4934868;29;20075;-72
2023/12/26 03:05:29;;;;;;;15.50;2.35;;;;;;;;;;4935474;29;20094;-73
2023/12/26 03:07:55;;;;;;;15.23;2.80;;;;;;;;;;4905676;29;20047;-73
2023/12/26 03:10:21;;;;;;;17.48;3.55;;;;;;;;;;4927556;29;20068;-78
2023/12/26 03:12:47;;;;;;;16.38;3.20;;;;;;;;;;4919062;29;20039;-78
2023/12/26 03:15:15;;;;;;;18.33;2.83;;;;;;;;;;4922649;29;20063;-77
2023/12/26 03:17:41;;;;;;;17.13;2.60;;;;;;;;;;4922803;29;20555;-78
2023/12/26 03:20:07;;;;;;;21.33;2.88;;;;;;;;;;4905018;29;20050;-77
2023/12/26 03:22:33;;;;;;;13.95;2.78;;;;;;;;;;4927556;29;20488;-77
2023/12/26 03:25:00;;;;;;;15.00;2.63;;;;;;;;;;4908136;28;20066;-77
2023/12/26 03:27:26;;;;;;;19.17;3.47;;;;;;;;;;4935280;29;20077;-77
2023/12/26 03:29:52;;;;;;;15.63;2.92;;;;;;;;;;4936049;29;20057;-78
2023/12/26 03:32:18;;;;;;;10.75;2.72;;;;;;;;;;4924414;29;20099;-78
2023/12/26 03:34:44;;;;;;;18.45;3.63;;;;;;;;;;4930627;29;20046;-78
2023/12/26 03:37:10;;;;;;;18.70;2.92;;;;;;;;;;4933687;29;20086;-77
2023/12/26 03:39:37;;;;;;;13.15;2.65;;;;;;;;;;4927793;29;20093;-77
2023/12/26 03:42:03;;;;;;;19.98;3.17;;;;;;;;;;4924785;29;20043;-78
2023/12/26 03:44:30;;;;;;;12.43;2.20;;;;;;;;;;4906704;29;20047;-77
2023/12/26 03:46:56;;;;;;;13.93;3.00;;;;;;;;;;4929442;29;20043;-78
2023/12/26 03:49:22;;;;;;;24.27;3.28;;;;;;;;;;4926948;29;20034;-77
2023/12/26 03:51:48;;;;;;;14.52;2.88;;;;;;;;;;4925141;29;20036;-78
2023/12/26 03:54:15;;;;;;;24.58;3.55;;;;;;;;;;4934489;29;20461;-77
2023/12/26 03:56:41;;;;;;;19.73;3.05;;;;;;;;;;4931843;29;20088;-78
2023/12/26 03:59:07;;;;;;;15.05;3.05;;;;;;;;;;4922193;29;20127;-78
2023/12/26 04:01:34;;;;;;;22.67;2.92;;;;;;;;;;4936219;29;20055;-78
2023/12/26 04:04:01;;;;;;;13.50;2.83;;;;;;;;;;4935520;29;20074;-77
2023/12/26 04:06:27;;;;;;;17.52;2.70;;;;;;;;;;4936088;29;20389;-78
2023/12/26 04:08:53;;;;;;;11.18;1.90;;;;;;;;;;4926631;29;20102;-78
2023/12/26 04:11:19;;;;;;;15.55;2.63;;;;;;;;;;4912298;29;20039;-78
2023/12/26 04:13:45;;;;;;;16.63;2.47;;;;;;;;;;4923628;29;20118;-78
2023/12/26 04:16:11;;;;;;;18.55;2.58;;;;;;;;;;4932642;29;20039;-77
2023/12/26 04:18:37;;;;;;;21.65;3.15;;;;;;;;;;4938918;29;20174;-78
2023/12/26 04:21:04;;;;;;;11.23;3.20;;;;;;;;;;4896075;29;20124;-78
2023/12/26 04:23:30;;;;;;;15.05;2.85;;;;;;;;;;4928415;29;20125;-78
2023/12/26 04:25:56;;;;;;;20.75;3.15;;;;;;;;;;4935754;29;20039;-78
2023/12/26 04:28:22;;;;;;;17.45;3.20;;;;;;;;;;4924048;29;20035;-78
2023/12/26 04:30:48;;;;;;;20.90;3.33;;;;;;;;;;4929620;29;20170;-78
2023/12/26 04:33:15;;;;;;;16.17;2.67;;;;;;;;;;4938735;29;20488;-78
2023/12/26 04:35:41;;;;;;;16.20;3.10;;;;;;;;;;4892638;28;20070;-78
2023/12/26 04:38:07;;;;;;;9.68;2.28;;;;;;;;;;4934774;29;20040;-78
2023/12/26 04:40:33;;;;;;;9.23;2.30;;;;;;;;;;4925646;29;20051;-78
2023/12/26 04:43:02;;;;;;;15.32;3.50;;;;;;;;;;4926669;29;20067;-78
2023/12/26 04:45:28;;;;;;;15.15;2.63;;;;;;;;;;4899144;29;20396;-78
2023/12/26 04:47:54;;;;;;;17.95;2.50;;;;;;;;;;4921203;29;20106;-78
2023/12/26 04:50:20;;;;;;;15.27;3.25;;;;;;;;;;4938164;28;20399;-78
2023/12/26 04:52:46;;;;;;;15.25;2.40;;;;;;;;;;4924854;29;20036;-78
2023/12/26 04:55:13;;;;;;;18.25;3.35;;;;;;;;;;4930780;29;20087;-78
2023/12/26 04:57:39;;;;;;;14.63;2.58;;;;;;;;;;4913110;29;20046;-78
2023/12/26 05:00:05;;;;;;;13.68;2.58;;;;;;;;;;4923128;29;20046;-78
2023/12/26 05:02:31;;;;;;;19.02;2.83;;;;;;;;;;4925079;29;20089;-77
2023/12/26 05:04:57;;;;;;;13.73;2.65;;;;;;;;;;4918761;29;20114;-78
2023/12/26 05:07:23;;;;;;;15.10;2.80;;;;;;;;;;4915001;29;20039;-78
2023/12/26 05:09:49;;;;;;;9.90;2.05;;;;;;;;;;4928442;29;20062;-78
2023/12/26 05:12:15;;;;;;;13.23;2.53;;;;;;;;;;4917338;29;20070;-78
2023/12/26 05:14:41;;;;;;;15.35;2.92;;;;;;;;;;4924320;29;20035;-78
2023/12/26 05:17:07;;;;;;;11.40;2.20;;;;;;;;;;4921593;29;20056;-78
2023/12/26 05:19:34;;;;;;;15.73;2.80;;;;;;;;;;4929302;28;20381;-78
2023/12/26 05:22:00;;;;;;;14.20;3.03;;;;;;;;;;4907243;29;20047;-78
2023/12/26 05:24:26;;;;;;;19.30;3.45;;;;;;;;;;4934647;29;20047;-79
2023/12/26 05:26:52;;;;;;;14.98;2.03;;;;;;;;;;4925811;29;20046;-78
2023/12/26 05:29:18;;;;;;;14.07;2.83;;;;;;;;;;4928151;29;20031;-78
2023/12/26 05:31:45;;;;;;;10.75;2.72;;;;;;;;;;4919542;29;20051;-78
2023/12/26 05:34:11;;;;;;;23.52;3.15;;;;;;;;;;4929865;29;20063;-78
2023/12/26 05:36:37;;;;;;;15.27;2.55;;;;;;;;;;4905978;29;20129;-78
2023/12/26 05:39:03;;;;;;;13.63;2.97;;;;;;;;;;4925585;29;20046;-78
2023/12/26 05:41:29;;;;;;;17.30;3.40;;;;;;;;;;4917321;29;20051;-78
2023/12/26 05:43:55;;;;;;;11.73;3.00;;;;;;;;;;4923885;29;20043;-78
2023/12/26 05:46:23;;;;;;;13.05;2.63;;;;;;;;;;4920720;28;20097;-78
2023/12/26 05:48:49;;;;;;;11.77;2.30;;;;;;;;;;4920670;29;20051;-78
2023/12/26 05:51:16;;;;;;;13.70;2.50;;;;;;;;;;4924531;29;20101;-78
2023/12/26 05:53:42;;;;;;;14.73;2.40;;;;;;;;;;4934606;29;20035;-78
2023/12/26 05:56:08;;;;;;;17.63;2.72;;;;;;;;;;4928262;29;20044;-78
2023/12/26 05:58:34;;;;;;;18.63;3.42;;;;;;;;;;4916447;29;20047;-78
2023/12/26 06:01:01;;;;;;;10.60;3.40;;;;;;;;;;4920471;28;20047;-78
2023/12/26 06:03:28;;;;;;;15.15;2.70;;;;;;;;;;4939301;29;20126;-78
2023/12/26 06:05:55;;;;;;;18.23;4.07;;;;;;;;;;4927633;29;20433;-78
2023/12/26 06:08:21;;;;;;;14.18;2.58;;;;;;;;;;4925431;29;20396;-78
2023/12/26 06:10:47;;;;;;;18.75;3.38;;;;;;;;;;4906746;29;20035;-78
2023/12/26 06:13:15;;;;;;;22.40;2.92;;;;;;;;;;4922959;29;20108;-78
2023/12/26 06:15:42;;;;;;;15.38;2.53;;;;;;;;;;4935843;29;20098;-78
2023/12/26 06:18:08;;;;;;;12.85;2.72;;;;;;;;;;4921165;29;20454;-78
2023/12/26 06:20:34;;;;;;;21.92;2.70;;;;;;;;;;4911092;29;20043;-78
2023/12/26 06:23:00;;;;;;;19.33;3.85;;;;;;;;;;4904513;29;20036;-78
2023/12/26 06:25:26;;;;;;;15.70;2.88;;;;;;;;;;4919740;29;20122;-78
2023/12/26 06:27:52;;;;;;;16.15;2.72;;;;;;;;;;4919203;29;20071;-78
2023/12/26 06:30:18;;;;;;;21.65;3.47;;;;;;;;;;4910682;29;20047;-78
2023/12/26 06:32:44;;;;;;;20.85;3.17;;;;;;;;;;4936144;29;20031;-78
2023/12/26 06:35:10;;;;;;;14.18;2.80;;;;;;;;;;4911666;29;20031;-78
2023/12/26 06:37:36;;;;;;;14.30;3.25;;;;;;;;;;4920167;29;20047;-77
2023/12/26 06:40:04;;;;;;;16.73;3.30;;;;;;;;;;4912228;29;20615;-78
2023/12/26 06:42:30;;;;;;;18.85;3.17;;;;;;;;;;4933177;29;20039;-78
2023/12/26 06:44:56;;;;;;;15.15;2.67;;;;;;;;;;4909255;29;20480;-78
2023/12/26 06:47:22;;;;;;;14.60;2.75;;;;;;;;;;4920046;29;20047;-78
2023/12/26 06:49:50;;;;;;;19.08;3.13;;;;;;;;;;4910800;29;20472;-78
2023/12/26 06:52:16;;;;;;;13.32;3.00;;;;;;;;;;4935513;29;20054;-78
2023/12/26 06:54:42;;;;;;;17.77;2.60;;;;;;;;;;4935906;29;20043;-78
2023/12/26 06:57:15;;;;;;;19.83;3.05;;;;;;;;;;4930346;29;20039;-78
2023/12/26 06:59:42;;;;;;;22.65;3.40;;;;;;;;;;4923198;29;20702;-78
2023/12/26 07:02:08;;;;;;;15.13;3.22;;;;;;;;;;4926713;29;20040;-78
2023/12/26 07:04:34;;;;;;;20.33;3.60;;;;;;;;;;4893077;29;20042;-79
2023/12/26 07:07:00;;;;;;;14.25;2.88;;;;;;;;;;4926034;29;20040;-78
2023/12/26 07:09:27;;;;;;;25.60;3.08;;;;;;;;;;4929524;29;20392;-79
2023/12/26 07:11:53;;;;;;;15.55;2.70;;;;;;;;;;4930570;28;20035;-78
2023/12/26 07:14:19;;;;;;;11.93;2.83;;;;;;;;;;4923804;29;20043;-78
2023/12/26 07:16:50;;;;;;;16.73;3.72;;;;;;;;;;4940648;29;20106;-78
2023/12/26 07:19:17;;;;;;;21.20;4.70;;;;;;;;;;4903727;29;20127;-79
2023/12/26 07:21:43;;;;;;;18.15;3.53;;;;;;;;;;4926706;29;20095;-78
2023/12/26 07:24:09;;;;;;;11.90;2.58;;;;;;;;;;4902397;29;20083;-79
2023/12/26 07:26:35;;;;;;;17.10;3.05;;;;;;;;;;4908767;29;20378;-78
2023/12/26 07:29:01;;;;;;;19.00;3.30;;;;;;;;;;4901231;29;20093;-78
2023/12/26 07:31:27;;;;;;;13.02;3.38;;;;;;;;;;4920246;29;20519;-78
2023/12/26 07:33:53;;;;;;;14.65;2.60;;;;;;;;;;4918535;29;20048;-79
2023/12/26 07:36:20;;;;;;;19.75;3.13;;;;;;;;;;4920807;29;20043;-79
2023/12/26 07:38:46;;;;;;;15.40;2.85;;;;;;;;;;4928140;29;20043;-78
2023/12/26 07:41:13;;;;;;;24.85;3.05;;;;;;;;;;4926303;29;20039;-79
2023/12/26 07:43:39;;;;;;;13.25;2.88;;;;;;;;;;4909153;29;20040;-79
2023/12/26 07:46:05;;;;;;;19.08;3.28;;;;;;;;;;4916803;29;20044;-78
2023/12/26 07:48:31;;;;;;;20.05;3.72;;;;;;;;;;4916428;29;20392;-78
2023/12/26 07:50:57;;;;;;;18.95;3.30;;;;;;;;;;4926523;29;20063;-78
2023/12/26 07:53:24;;;;;;;18.40;3.78;;;;;;;;;;4914412;29;20074;-78
2023/12/26 07:55:50;;;;;;;22.33;3.75;;;;;;;;;;4932305;29;20035;-78
2023/12/26 07:58:16;;;;;;;12.48;2.75;;;;;;;;;;4894461;29;20040;-78
2023/12/26 08:00:44;;;;;;;16.20;3.17;;;;;;;;;;4924614;29;20050;-77
2023/12/26 08:03:15;;;;;;;15.98;3.17;;;;;;;;;;4925788;29;20044;-77
2023/12/26 08:05:41;;;;;;;15.90;3.28;;;;;;;;;;4931293;29;20047;-78
2023/12/26 08:08:07;;;;;;;16.85;3.08;;;;;;;;;;4900397;29;20051;-77
2023/12/26 08:10:33;;;;;;;11.43;2.35;;;;;;;;;;4903853;29;20059;-78
2023/12/26 08:13:00;;;;;;;15.07;3.03;;;;;;;;;;4908582;29;20119;-78
2023/12/26 08:15:26;;;;;;;15.45;3.38;;;;;;;;;;4922218;29;20436;-78
2023/12/26 08:17:53;;;;;;;13.82;3.92;;;;;;;;;;4930650;29;20059;-78
2023/12/26 08:20:19;;;;;;;16.27;3.17;;;;;;;;;;4930360;29;20127;-74
2023/12/26 08:22:45;;;;;;;12.23;2.50;;;;;;;;;;4914774;29;20370;-74
2023/12/26 08:25:11;;;;;;;15.00;2.80;;;;;;;;;;4935797;29;20087;-74
2023/12/26 08:27:37;;;;;;;13.77;2.83;;;;;;;;;;4917876;29;20048;-73
2023/12/26 08:30:04;;;;;;;12.98;2.72;;;;;;;;;;4935479;29;20040;-74
2023/12/26 08:32:30;;;;;;;10.02;2.63;;;;;;;;;;4933909;29;20052;-74
2023/12/26 08:34:58;;;;;;;16.00;2.58;;;;;;;;;;4893372;29;20043;-74
2023/12/26 08:37:24;;;;;;;21.17;2.75;;;;;;;;;;4922163;29;20048;-74
2023/12/26 08:39:50;;;;;;;21.55;3.35;;;;;;;;;;4935196;29;20127;-74
2023/12/26 08:42:16;;;;;;;19.95;3.55;;;;;;;;;;4913071;29;20044;-74
2023/12/26 08:44:43;;;;;;;12.65;2.55;;;;;;;;;;4914572;29;20048;-74
2023/12/26 08:47:09;;;;;;;13.50;2.92;;;;;;;;;;4909235;29;20088;-74
2023/12/26 08:49:35;;;;;;;14.05;3.10;;;;;;;;;;4927430;29;20040;-74
2023/12/26 08:52:02;;;;;;;16.83;2.78;;;;;;;;;;4933936;29;20151;-73
2023/12/26 08:54:28;;;;;;;14.93;2.90;;;;;;;;;;4921568;29;20040;-74
2023/12/26 08:56:54;;;;;;;17.48;2.90;;;;;;;;;;4927695;29;20044;-74
2023/12/26 08:59:20;;;;;;;17.42;2.90;;;;;;;;;;4933708;29;20096;-74
2023/12/26 09:01:47;;;;;;;17.58;3.45;;;;;;;;;;4905124;29;20083;-74
2023/12/26 09:04:14;;;;;;;16.75;3.22;;;;;;;;;;4933989;29;20492;-74
2023/12/26 09:06:41;;;;;;;18.35;3.30;;;;;;;;;;4936772;29;20401;-74
2023/12/26 09:09:08;;;;;;;13.43;3.25;;;;;;;;;;4921138;29;20126;-74
2023/12/26 09:11:34;;;;;;;14.60;3.03;;;;;;;;;;4929259;29;20441;-74
2023/12/26 09:14:00;;;;;;;17.88;2.83;;;;;;;;;;4933963;29;20404;-75
2023/12/26 09:16:26;;;;;;;12.15;3.08;;;;;;;;;;4923070;28;20075;-74
2023/12/26 09:18:52;;;;;;;16.20;2.95;;;;;;;;;;4936260;29;20047;-73
2023/12/26 09:21:18;;;;;;;10.38;2.70;;;;;;;;;;4936373;29;20051;-76
2023/12/26 09:23:44;;;;;;;16.95;3.00;;;;;;;;;;4926062;29;20400;-77
2023/12/26 09:26:12;;;;;;;15.75;2.50;;;;;;;;;;4929106;29;20078;-76
2023/12/26 09:28:38;;;;;;;17.92;2.47;;;;;;;;;;4929245;29;20110;-73
2023/12/26 09:31:04;;;;;;;17.27;3.05;;;;;;;;;;4907168;29;20531;-73
2023/12/26 09:33:31;;;;;;;14.15;2.90;;;;;;;;;;4916340;29;20554;-72
2023/12/26 09:35:57;;;;;;;19.83;3.10;;;;;;;;;;4898965;29;20063;-73
2023/12/26 09:38:23;;;;;;;18.33;3.00;;;;;;;;;;4890204;29;20035;-73
2023/12/26 09:40:49;;;;;;;13.82;2.22;;;;;;;;;;4930258;29;20099;-73
2023/12/26 09:43:15;;;;;;;13.95;3.03;;;;;;;;;;4933336;29;20373;-73
2023/12/26 09:45:41;;;;;;;20.63;3.15;;;;;;;;;;4930611;29;20527;-72
2023/12/26 09:48:07;;;;;;;14.18;2.95;;;;;;;;;;4923543;29;20511;-73
2023/12/26 09:50:35;;;;;;;23.48;3.00;;;;;;;;;;4929249;29;20075;-73
2023/12/26 09:53:01;;;;;;;17.35;3.50;;;;;;;;;;4888402;29;20032;-73
2023/12/26 09:55:28;;;;;;;20.20;3.03;;;;;;;;;;4919600;29;20047;-73
2023/12/26 09:57:56;;;;;;;13.80;3.20;;;;;;;;;;4935405;29;20043;-73
2023/12/26 10:00:22;;;;;;;18.70;3.40;;;;;;;;;;4921762;29;20130;-73
2023/12/26 10:02:49;;;;;;;19.42;3.65;;;;;;;;;;4919997;29;20138;-73
2023/12/26 10:05:15;;;;;;;11.30;2.88;;;;;;;;;;4923082;29;20047;-73
2023/12/26 10:07:41;;;;;;;16.60;3.22;;;;;;;;;;4908693;29;20148;-73
2023/12/26 10:10:07;;;;;;;15.93;2.67;;;;;;;;;;4921555;29;20110;-74
2023/12/26 10:12:36;;;;;;;18.55;3.13;;;;;;;;;;4905349;29;20043;-74
2023/12/26 10:15:03;;;;;;;16.08;2.90;;;;;;;;;;4923429;29;20358;-74
2023/12/26 10:17:30;;;;;;;18.98;3.25;;;;;;;;;;4913432;28;20059;-74
2023/12/26 10:20:00;;;;;;;17.95;2.45;;;;;;;;;;4938724;28;20364;-75
2023/12/26 10:22:26;;;;;;;18.00;2.92;;;;;;;;;;4921172;29;20406;-74
2023/12/26 10:24:55;;;;;;;18.15;3.35;;;;;;;;;;4904086;29;20043;-76
2023/12/26 10:27:21;;;;;;;12.40;2.65;;;;;;;;;;4935046;29;20096;-74
2023/12/26 10:29:51;;;;;;;18.40;3.33;;;;;;;;;;4923150;28;20042;-71
2023/12/26 10:32:17;;;;;;;12.02;2.75;;;;;;;;;;4940361;28;20063;-80
2023/12/26 10:34:43;;;;;;;13.25;2.92;;;;;;;;;;4906440;29;20044;-79
2023/12/26 10:37:11;;;;;;;15.48;2.90;;;;;;;;;;4927989;29;20039;-74
2023/12/26 10:39:37;;;;;;;16.45;3.08;;;;;;;;;;4930333;29;20510;-72
2023/12/26 10:42:04;;;;;;;21.85;3.55;;;;;;;;;;4923809;29;20122;-74
2023/12/26 10:44:51;;;;;;;14.18;3.00;;;;;;;;;;4935474;28;20043;-73
2023/12/26 10:47:19;;;;;;;17.63;3.47;;;;;;;;;;4927062;29;20043;-74
2023/12/26 10:49:46;;;;;;;19.13;3.20;;;;;;;;;;4935912;29;20055;-73
2023/12/26 10:52:16;;;;;;;15.05;2.92;;;;;;;;;;4935734;29;20362;-73
2023/12/26 10:54:43;;;;;;;12.88;3.10;;;;;;;;;;4919893;29;20114;-73
2023/12/26 10:57:10;;;;;;;13.77;2.83;;;;;;;;;;4915867;29;20047;-73
2023/12/26 13:51:27;;;;;;;5.43;1.95;;;;;;;;;;4919785;29;20054;-77
2023/12/26 13:54:13;;;;;;;8.20;1.30;;;;;;;;;;4919717;29;20087;-77
2023/12/26 13:57:16;;;;;;;6.28;1.38;;;9.10;99.90;;;;;;4904097;29;20102;-77
2023/12/26 14:00:01;;;;;;;8.93;1.92;;;;;;;;;;4919998;29;20049;-77
2023/12/26 14:02:46;;;;;;;4.88;1.40;;;;;;;;;;4904054;29;20106;-78
2023/12/26 14:05:31;;;;;;;3.55;1.33;;;;;;;;;;4904110;29;20061;-78
2023/12/26 14:08:17;;;;;;;10.07;1.75;;;;;;;;;;4903766;29;20040;-77
2023/12/26 14:11:02;;;;;;;7.07;1.20;;;;;;;;;;4904143;29;20079;-77
2023/12/26 14:13:47;;;;;;;5.13;1.40;;;;;;;;;;4903548;29;20075;-77
2023/12/26 14:16:31;;;;;;;4.40;1.15;;;;;;;;;;4919588;29;20098;-77
2023/12/26 14:19:35;;;;;;;6.32;1.27;;;8.80;99.90;;;;;;4903361;29;20143;-77
2023/12/26 14:22:38;;;;;;;6.10;1.98;;;8.60;99.90;;;;;;4919474;29;20055;-77
2023/12/26 14:25:23;;;;;;;4.53;1.20;;;;;;;;;;4903528;29;20130;-77
2023/12/26 14:28:07;;;;;;;5.38;1.40;;;;;;;;;;4919236;29;20036;-77
2023/12/26 14:30:52;;;;;;;4.32;1.20;;;;;;;;;;4919241;29;20044;-77
2023/12/26 14:33:37;;;;;;;5.95;1.27;;;;;;;;;;4919149;29;20042;-77
2023/12/26 14:36:22;;;;;;;5.75;1.40;;;;;;;;;;4919244;29;20154;-77
2023/12/26 14:39:07;;;;;;;12.32;2.22;;;;;;;;;;4903591;29;20050;-76
2023/12/26 14:42:11;;;;;;;4.97;1.35;;;8.50;99.90;;;;;;4904081;29;20044;-76
2023/12/26 14:44:55;;;;;;;5.18;1.58;;;;;;;;;;4919671;29;20512;-76
2023/12/26 14:47:41;;;;;;;5.43;1.15;;;;;;;;;;4923990;29;20082;-74
2023/12/26 14:50:25;;;;;;;5.60;1.50;;;8.30;99.90;;;;;;4905608;29;20488;-76
2023/12/26 14:52:51;;;;;;;6.72;1.60;;;;;;;;;;4919003;29;20047;-77
2023/12/26 14:55:17;;;;;;;13.68;2.63;;;;;;;;;;4904359;29;20044;-77
2023/12/26 14:57:44;;;;;;;4.50;1.25;;;;;;;;;;4919132;29;20412;-76
2023/12/26 15:00:10;;;;;;;6.40;1.48;;;;;;;;;;4919028;29;20075;-77
2023/12/26 15:02:36;;;;;;;5.38;1.50;;;;;;;;;;4918886;29;20059;-77
2023/12/26 15:05:03;;;;;;;6.07;2.38;;;;;;;;;;4903265;29;20392;-77
2023/12/26 15:07:29;;;;;;;6.53;1.40;;;;;;;;;;4919106;29;20075;-77
2023/12/26 15:09:55;;;;;;;4.22;1.30;;;;;;;;;;4903304;29;20555;-76
2023/12/26 15:12:22;;;;;;;10.40;1.75;;;;;;;;;;4903371;29;20043;-74
2023/12/26 15:14:48;;;;;;;6.85;1.40;;;;;;;;;;4903050;29;20043;-74
2023/12/26 15:17:15;;;;;;;10.45;1.83;;;;;;;;;;4902771;29;20140;-73
2023/12/26 15:19:41;;;;;;;8.40;1.63;;;;;;;;;;4918494;29;20050;-73
2023/12/26 15:22:08;;;;;;;12.23;1.63;;;;;;;;;;4918477;29;20040;-73
2023/12/26 15:24:34;;;;;;;8.20;1.73;;;;;;;;;;4917921;29;20039;-73
2023/12/26 15:27:00;;;;;;;8.25;1.58;;;;;;;;;;4902693;29;20456;-73
2023/12/26 15:29:26;;;;;;;10.65;1.60;;;;;;;;;;4918686;29;20054;-76
2023/12/26 15:31:52;;;;;;;6.38;1.75;;;;;;;;;;4902888;29;20070;-77
2023/12/26 15:34:18;;;;;;;9.98;2.50;;;;;;;;;;4887131;29;20043;-77
2023/12/26 15:36:44;;;;;;;13.10;2.00;;;;;;;;;;4902626;29;20496;-77
2023/12/26 15:39:11;;;;;;;9.75;1.63;;;;;;;;;;4902851;29;20052;-75
2023/12/26 15:41:37;;;;;;;6.78;1.92;;;;;;;;;;4903186;29;20519;-77
2023/12/26 15:44:03;;;;;;;10.45;2.42;;;;;;;;;;4902814;29;20047;-77
2023/12/26 15:46:29;;;;;;;18.48;2.35;;;;;;;;;;4902575;29;20075;-77
2023/12/26 15:48:55;;;;;;;10.70;1.90;;;;;;;;;;4918227;29;20123;-76
2023/12/26 15:51:24;;;;;;;17.02;2.08;;;;;;;;;;4936404;29;20048;-76
2023/12/26 15:53:51;;;;;;;8.38;1.70;;;;;;;;;;4918098;29;20051;-77
2023/12/26 15:56:21;;;;;;;14.35;1.70;;;;;;;;;;4918441;29;20520;-77
2023/12/26 15:58:50;;;;;;;10.48;2.03;;;;;;;;;;4902995;29;20436;-77
2023/12/26 16:01:17;;;;;;;13.93;2.28;;;;;;;;;;4918444;29;20050;-77
2023/12/26 16:03:46;;;;;;;13.85;2.25;;;;;;;;;;4918502;29;20043;-77
2023/12/26 16:06:23;;;;;;;9.30;1.90;;;;;;;;;;4903004;29;20074;-77
2023/12/26 16:08:49;;;;;;;7.47;1.90;;;;;;;;;;4903557;29;20123;-77
2023/12/26 16:11:15;;;;;;;8.15;1.80;;;;;;;;;;4918815;29;20492;-77
2023/12/26 16:13:42;;;;;;;8.02;2.00;;;;;;;;;;4918090;29;20131;-77
2023/12/26 16:16:08;;;;;;;6.47;1.80;;;;;;;;;;4918549;29;20114;-76
2023/12/26 16:18:34;;;;;;;12.98;2.08;;;;;;;;;;4899053;29;20405;-76
2023/12/26 16:21:04;;;;;;;12.75;2.53;;;;;;;;;;4914712;29;20131;-77
2023/12/26 16:23:30;;;;;;;10.90;2.22;;;;;;;;;;4915106;29;20062;-76
2023/12/26 16:25:56;;;;;;;9.85;1.98;;;;;;;;;;4883544;29;20127;-76
2023/12/26 16:28:22;;;;;;;15.30;2.88;;;;;;;;;;4883371;29;20075;-76
2023/12/26 16:30:48;;;;;;;5.85;1.70;;;;;;;;;;4898983;29;20040;-77
2023/12/26 16:33:14;;;;;;;12.50;2.58;;;;;;;;;;4898832;29;20044;-77
2023/12/26 16:35:41;;;;;;;11.07;2.70;;;;;;;;;;4915364;29;20036;-77
2023/12/26 16:38:07;;;;;;;10.30;2.35;;;;;;;;;;4918293;29;20102;-76
2023/12/26 16:40:33;;;;;;;12.70;2.50;;;;;;;;;;4917904;29;20671;-77
2023/12/26 16:42:59;;;;;;;12.00;3.03;;;;;;;;;;4902534;29;20043;-77
2023/12/26 16:45:25;;;;;;;12.20;2.17;;;;;;;;;;4902261;29;20051;-76
2023/12/26 16:47:51;;;;;;;14.80;3.05;;;;;;;;;;4902096;29;20059;-77
2023/12/26 16:50:18;;;;;;;13.85;2.13;;;;;;;;;;4918013;29;20063;-77
2023/12/26 16:52:44;;;;;;;14.20;2.40;;;;;;;;;;4917900;29;20154;-77
2023/12/26 16:55:11;;;;;;;15.13;2.78;;;;;;;;;;4917560;29;20079;-76
2023/12/26 16:57:37;;;;;;;11.93;2.30;;;;;;;;;;4917673;29;20055;-77
2023/12/26 17:00:05;;;;;;;12.82;2.08;;;;;;;;;;4917476;29;20051;-77
2023/12/26 17:02:32;;;;;;;15.02;2.15;;;;;;;;;;4902328;29;20366;-77
2023/12/26 17:04:58;;;;;;;10.10;1.90;;;;;;;;;;4917639;29;20048;-77
2023/12/26 17:07:24;;;;;;;9.20;2.05;;;;;;;;;;4917483;29;20078;-76
2023/12/26 17:09:50;;;;;;;7.28;1.92;;;;;;;;;;4917596;29;20128;-77
2023/12/26 17:12:17;;;;;;;9.80;2.28;;;;;;;;;;4917364;29;20059;-77
2023/12/26 17:14:43;;;;;;;6.53;1.67;;;;;;;;;;4917368;29;20036;-77
2023/12/26 17:17:09;;;;;;;8.05;2.30;;;;;;;;;;4903797;29;20070;-77
2023/12/26 17:19:35;;;;;;;10.18;2.08;;;;;;;;;;4920331;29;20117;-77
2023/12/26 17:22:01;;;;;;;11.40;2.15;;;;;;;;;;4904964;29;20047;-77
2023/12/26 17:24:27;;;;;;;11.93;2.63;;;;;;;;;;4920253;29;20051;-77
2023/12/26 17:26:53;;;;;;;7.30;2.10;;;;;;;;;;4920094;29;20054;-77